createdAt,value
2022-12-17T00:01:39.037Z,167.60
2022-12-17T00:07:00.137Z,185.37
2022-12-17T00:12:21.138Z,176.77
2022-12-17T00:17:42.537Z,168.80
2022-12-17T00:23:03.531Z,167.10
2022-12-17T00:28:29.078Z,156.67
2022-12-17T00:33:52.640Z,158.93
2022-12-17T00:39:13.628Z,172.25
2022-12-17T00:44:34.894Z,173.27
2022-12-17T00:49:56.187Z,162.40
2022-12-17T00:55:19.473Z,155.73
2022-12-17T01:00:40.889Z,170.50
2022-12-17T01:06:01.882Z,165.87
2022-12-17T01:11:26.007Z,156.47
2022-12-17T01:16:56.404Z,157.93
2022-12-17T01:22:17.607Z,127.30
2022-12-17T01:27:38.657Z,151.47
2022-12-17T01:33:03.359Z,132.20
2022-12-17T01:38:35.095Z,151.63
2022-12-17T01:43:57.856Z,139.83
2022-12-17T01:49:19.018Z,114.30
2022-12-17T01:54:41.608Z,141.13
2022-12-17T02:00:19.301Z,149.70
2022-12-17T02:05:46.549Z,147.93
2022-12-17T02:11:24.919Z,164.10
2022-12-17T02:16:50.869Z,165.83
2022-12-17T02:22:15.068Z,166.67
2022-12-17T02:27:38.614Z,172.73
2022-12-17T02:33:01.118Z,163.17
2022-12-17T02:43:59.329Z,150.13
2022-12-17T02:49:20.773Z,132.03
2022-12-17T02:54:42.210Z,135.43
2022-12-17T03:00:03.761Z,130.30
2022-12-17T03:11:07.646Z,143.30
2022-12-17T03:16:37.428Z,144.17
2022-12-17T03:21:59.207Z,145.43
2022-12-17T03:27:21.308Z,138.40
2022-12-17T03:32:42.444Z,145.33
2022-12-17T03:38:03.591Z,158.37
2022-12-17T03:43:26.223Z,135.70
2022-12-17T03:48:47.218Z,137.47
2022-12-17T03:54:08.178Z,121.33
2022-12-17T03:59:29.399Z,146.53
2022-12-17T04:04:50.435Z,150.67
2022-12-17T04:10:12.207Z,152.40
2022-12-17T04:15:34.309Z,148.73
2022-12-17T04:20:55.179Z,162.83
2022-12-17T04:26:16.169Z,158.40
2022-12-17T04:31:37.326Z,154.63
2022-12-17T04:37:00.294Z,156.50
2022-12-17T04:42:21.575Z,129.57
2022-12-17T04:47:53.694Z,154.63
2022-12-17T04:53:19.905Z,146.47
2022-12-17T04:58:41.289Z,141.77
2022-12-17T05:04:02.194Z,129.17
2022-12-17T05:09:23.268Z,127.77
2022-12-17T05:14:44.760Z,135.53
2022-12-17T05:20:05.533Z,148.13
2022-12-17T05:25:26.540Z,145.03
2022-12-17T05:30:47.627Z,150.23
2022-12-17T05:36:08.959Z,155.10
2022-12-17T05:41:29.717Z,136.57
2022-12-17T05:46:53.224Z,136.98
2022-12-17T05:52:14.349Z,128.20
2022-12-17T05:57:35.371Z,135.43
2022-12-17T06:02:56.776Z,132.73
2022-12-17T06:08:26.268Z,129.83
2022-12-17T06:13:47.503Z,165.17
2022-12-17T06:19:09.108Z,154.97
2022-12-17T06:24:30.101Z,148.37
2022-12-17T06:29:50.841Z,157.67
2022-12-17T06:35:11.747Z,144.07
2022-12-17T06:40:32.977Z,140.60
2022-12-17T06:45:54.140Z,139.77
2022-12-17T06:51:15.304Z,150.87
2022-12-17T06:56:37.216Z,147.60
2022-12-17T07:01:58.370Z,139.20
2022-12-17T07:07:19.862Z,148.63
2022-12-17T07:12:42.819Z,144.97
2022-12-17T07:18:20.645Z,135.00
2022-12-17T07:23:42.960Z,164.10
2022-12-17T07:29:03.654Z,154.17
2022-12-17T07:34:24.898Z,129.90
2022-12-17T07:39:46.077Z,124.13
2022-12-17T07:45:07.682Z,116.53
2022-12-17T07:50:28.594Z,120.80
2022-12-17T07:55:51.623Z,114.90
2022-12-17T08:06:38.513Z,111.87
2022-12-17T08:17:20.456Z,144.90
2022-12-17T08:22:42.098Z,115.33
2022-12-17T08:28:07.361Z,108.60
2022-12-17T08:33:31.664Z,114.27
2022-12-17T08:38:52.849Z,105.13
2022-12-17T08:44:14.201Z,101.63
2022-12-17T08:49:38.155Z,100.67
2022-12-17T08:55:09.827Z,85.57
2022-12-17T09:00:32.072Z,87.50
2022-12-17T09:05:53.052Z,81.23
2022-12-17T09:11:14.414Z,124.00
2022-12-17T09:16:35.816Z,109.77
2022-12-17T09:21:57.538Z,115.67
2022-12-17T09:27:19.877Z,101.33
2022-12-17T09:32:40.924Z,102.60
2022-12-17T09:38:02.008Z,118.50
2022-12-17T09:43:26.956Z,100.13
2022-12-17T09:49:18.716Z,132.93
2022-12-17T09:55:00.952Z,133.07
2022-12-17T10:00:34.893Z,118.90
2022-12-17T10:05:56.204Z,134.40
2022-12-17T10:11:34.178Z,159.07
2022-12-17T10:17:07.070Z,159.10
2022-12-17T10:22:33.427Z,226.57
2022-12-17T10:27:55.038Z,161.10
2022-12-17T10:33:16.082Z,137.10
2022-12-17T10:38:39.811Z,124.10
2022-12-17T10:44:01.444Z,179.00
2022-12-17T10:49:28.324Z,131.00
2022-12-17T10:54:51.120Z,203.13
2022-12-17T11:00:13.443Z,266.30
2022-12-17T11:05:43.074Z,397.73
2022-12-17T11:11:05.431Z,129.20
2022-12-17T11:16:37.642Z,140.23
2022-12-17T11:22:07.902Z,284.13
2022-12-17T11:27:35.354Z,178.73
2022-12-17T11:33:13.479Z,156.40
2022-12-17T11:38:58.464Z,155.23
2022-12-17T11:44:49.402Z,167.63
2022-12-17T11:50:44.174Z,185.97
2022-12-17T11:56:13.181Z,153.97
2022-12-17T12:01:56.800Z,151.73
2022-12-17T12:07:21.062Z,145.75
2022-12-17T12:13:08.582Z,175.73
2022-12-17T12:18:48.327Z,157.83
2022-12-17T12:24:19.597Z,159.73
2022-12-17T12:29:52.099Z,168.30
2022-12-17T12:35:14.764Z,158.23
2022-12-17T12:40:57.524Z,181.20
2022-12-17T12:46:31.754Z,205.30
2022-12-17T12:51:56.244Z,189.53
2022-12-17T12:57:17.378Z,223.20
2022-12-17T13:02:50.656Z,239.25
2022-12-17T13:08:05.645Z,230.88
2022-12-17T13:13:24.273Z,498.50
2022-12-17T13:18:36.002Z,421.83
2022-12-17T13:23:39.459Z,212.40
2022-12-17T13:28:43.786Z,292.80
2022-12-17T13:34:09.455Z,140.60
2022-12-17T13:39:21.018Z,286.17
2022-12-17T13:44:25.584Z,212.20
2022-12-17T13:49:31.099Z,171.37
2022-12-17T13:54:33.624Z,136.27
2022-12-17T13:59:36.433Z,154.85
2022-12-17T14:04:40.907Z,165.15
2022-12-17T14:09:44.002Z,162.30
2022-12-17T14:14:50.439Z,130.70
2022-12-17T14:20:01.816Z,206.70
2022-12-17T14:25:13.802Z,161.15
2022-12-17T14:30:22.006Z,229.87
2022-12-17T14:35:30.276Z,156.00
2022-12-17T14:40:32.981Z,140.87
2022-12-17T14:45:58.682Z,120.97
2022-12-17T14:51:01.290Z,211.33
2022-12-17T14:56:04.093Z,173.20
2022-12-17T15:01:09.321Z,188.83
2022-12-17T15:06:13.839Z,156.83
2022-12-17T15:11:20.162Z,134.00
2022-12-17T15:16:22.728Z,139.70
2022-12-17T15:21:25.677Z,142.50
2022-12-17T15:26:29.479Z,172.93
2022-12-17T15:31:35.478Z,212.13
2022-12-17T15:36:38.558Z,152.57
2022-12-17T15:42:00.135Z,116.80
2022-12-17T15:47:02.610Z,111.55
2022-12-17T15:52:07.083Z,126.83
2022-12-17T15:57:18.403Z,205.20
2022-12-17T16:02:22.410Z,172.90
2022-12-17T16:07:24.940Z,614.23
2022-12-17T16:12:29.818Z,258.83
2022-12-17T16:17:32.648Z,397.70
2022-12-17T16:22:35.230Z,250.60
2022-12-17T16:27:37.968Z,656.07
2022-12-17T16:32:40.521Z,1121.43
2022-12-17T16:37:42.939Z,414.27
2022-12-17T16:42:46.746Z,470.13
2022-12-17T16:47:50.903Z,374.17
2022-12-17T16:52:53.323Z,225.97
2022-12-17T16:57:56.834Z,168.40
2022-12-17T17:08:02.041Z,120.57
2022-12-17T17:13:05.157Z,110.93
2022-12-17T17:18:07.663Z,167.80
2022-12-17T17:23:10.125Z,212.17
2022-12-17T17:28:12.626Z,201.53
2022-12-17T17:33:15.177Z,161.07
2022-12-17T17:38:17.632Z,104.97
2022-12-17T17:43:21.131Z,118.93
2022-12-17T17:53:26.235Z,765.90
2022-12-17T17:58:32.619Z,1429.63
2022-12-17T18:03:35.811Z,1388.67
2022-12-17T18:08:38.745Z,495.27
2022-12-17T18:13:56.945Z,218.40
2022-12-17T18:19:03.269Z,217.83
2022-12-17T18:24:08.152Z,208.17
2022-12-17T18:29:15.914Z,138.53
2022-12-17T18:34:20.530Z,390.83
2022-12-17T18:39:25.017Z,224.80
2022-12-17T18:44:28.537Z,329.27
2022-12-17T18:49:32.499Z,182.77
2022-12-17T18:54:35.213Z,109.05
2022-12-17T18:59:38.651Z,127.27
2022-12-17T19:04:41.396Z,181.75
2022-12-17T19:09:44.966Z,76.87
2022-12-17T19:19:49.735Z,106.50
2022-12-17T19:24:52.967Z,119.03
2022-12-17T19:29:57.269Z,106.72
2022-12-17T19:35:00.865Z,96.93
2022-12-17T19:40:03.941Z,124.90
2022-12-17T19:45:07.416Z,619.17
2022-12-17T19:50:12.940Z,561.67
2022-12-17T19:55:15.940Z,129.20
2022-12-17T20:00:19.074Z,107.63
2022-12-17T20:05:22.851Z,123.18
2022-12-17T20:10:25.628Z,143.77
2022-12-17T20:15:30.022Z,134.73
2022-12-17T20:20:32.598Z,114.30
2022-12-17T20:25:36.384Z,165.13
2022-12-17T20:30:58.135Z,103.00
2022-12-17T20:36:09.985Z,160.32
2022-12-17T20:41:20.749Z,136.77
2022-12-17T20:46:28.678Z,142.70
2022-12-17T20:51:35.350Z,122.07
2022-12-17T20:56:41.058Z,128.50
2022-12-17T21:02:48.331Z,172.37
2022-12-17T21:09:05.376Z,161.43
2022-12-17T21:14:33.653Z,125.87
2022-12-17T21:19:58.393Z,160.90
2022-12-17T21:31:51.379Z,158.83
2022-12-17T21:37:29.744Z,185.00
2022-12-17T21:42:51.357Z,199.83
2022-12-17T21:47:56.510Z,166.30
2022-12-17T21:52:59.587Z,165.30
2022-12-17T21:58:06.424Z,155.00
2022-12-17T22:03:12.515Z,178.73
2022-12-17T22:08:18.833Z,158.63
2022-12-17T22:13:39.805Z,151.20
2022-12-17T22:18:42.709Z,149.77
2022-12-17T22:23:47.677Z,156.38
2022-12-17T22:28:50.926Z,147.53
2022-12-17T22:35:05.160Z,122.78
2022-12-17T22:42:55.334Z,116.33
2022-12-17T22:44:53.327Z,107.10
2022-12-17T22:49:58.126Z,94.83
2022-12-17T22:55:01.767Z,132.97
2022-12-17T23:00:13.779Z,142.90
2022-12-17T23:05:16.506Z,181.90
2022-12-17T23:10:19.685Z,223.97
2022-12-17T23:15:34.288Z,259.40
2022-12-17T23:20:37.203Z,258.83
2022-12-17T23:25:40.218Z,191.07
2022-12-17T23:30:42.799Z,204.23
2022-12-17T23:35:45.440Z,303.13
2022-12-17T23:40:51.127Z,149.53
2022-12-17T23:45:54.095Z,213.87
2022-12-17T23:50:56.870Z,197.35
2022-12-17T23:56:15.770Z,162.57
